sensor_id;sensor_type;location;lat;lon;timestamp;P1;durP1;ratioP1;P2;durP2;ratioP2
24650;SDS011;12783;48.824;8.662;2023-02-15T00:01:54;1.17;;;1.00;;
24650;SDS011;12783;48.824;8.662;2023-02-15T00:04:22;0.90;;;0.80;;
24650;SDS011;12783;48.824;8.662;2023-02-15T00:06:50;1.20;;;0.82;;
24650;SDS011;12783;48.824;8.662;2023-02-15T00:09:17;0.95;;;0.70;;
24650;SDS011;12783;48.824;8.662;2023-02-15T00:11:43;1.45;;;1.00;;
24650;SDS011;12783;48.824;8.662;2023-02-15T00:14:17;1.98;;;0.90;;
24650;SDS011;12783;48.824;8.662;2023-02-15T00:16:46;1.23;;;0.82;;
24650;SDS011;12783;48.824;8.662;2023-02-15T00:19:14;0.77;;;0.70;;
24650;SDS011;12783;48.824;8.662;2023-02-15T00:21:43;2.83;;;1.00;;
24650;SDS011;12783;48.824;8.662;2023-02-15T00:24:10;1.20;;;1.10;;
24650;SDS011;12783;48.824;8.662;2023-02-15T00:26:39;2.70;;;1.00;;
24650;SDS011;12783;48.824;8.662;2023-02-15T00:29:06;1.35;;;0.98;;
24650;SDS011;12783;48.824;8.662;2023-02-15T00:31:34;2.55;;;1.20;;
24650;SDS011;12783;48.824;8.662;2023-02-15T00:34:02;2.22;;;1.10;;
24650;SDS011;12783;48.824;8.662;2023-02-15T00:36:40;1.00;;;0.80;;
24650;SDS011;12783;48.824;8.662;2023-02-15T00:39:07;1.23;;;1.10;;
24650;SDS011;12783;48.824;8.662;2023-02-15T00:41:34;1.48;;;0.90;;
24650;SDS011;12783;48.824;8.662;2023-02-15T00:44:02;0.93;;;0.73;;
24650;SDS011;12783;48.824;8.662;2023-02-15T00:46:29;0.90;;;0.82;;
24650;SDS011;12783;48.824;8.662;2023-02-15T00:48:56;1.17;;;0.82;;
24650;SDS011;12783;48.824;8.662;2023-02-15T00:51:23;1.80;;;0.90;;
24650;SDS011;12783;48.824;8.662;2023-02-15T00:53:50;1.58;;;1.02;;
24650;SDS011;12783;48.824;8.662;2023-02-15T00:56:16;2.13;;;1.30;;
24650;SDS011;12783;48.824;8.662;2023-02-15T00:58:43;2.00;;;1.17;;
24650;SDS011;12783;48.824;8.662;2023-02-15T01:01:11;3.15;;;1.50;;
24650;SDS011;12783;48.824;8.662;2023-02-15T01:03:39;1.63;;;1.23;;
24650;SDS011;12783;48.824;8.662;2023-02-15T01:06:10;2.92;;;1.40;;
24650;SDS011;12783;48.824;8.662;2023-02-15T01:08:37;1.13;;;1.00;;
24650;SDS011;12783;48.824;8.662;2023-02-15T01:11:08;1.88;;;1.38;;
24650;SDS011;12783;48.824;8.662;2023-02-15T01:13:36;2.55;;;1.15;;
24650;SDS011;12783;48.824;8.662;2023-02-15T01:16:03;2.53;;;1.20;;
24650;SDS011;12783;48.824;8.662;2023-02-15T01:18:31;2.20;;;1.52;;
24650;SDS011;12783;48.824;8.662;2023-02-15T01:20:58;2.67;;;1.40;;
24650;SDS011;12783;48.824;8.662;2023-02-15T01:23:25;1.75;;;1.20;;
24650;SDS011;12783;48.824;8.662;2023-02-15T01:25:52;3.30;;;1.50;;
24650;SDS011;12783;48.824;8.662;2023-02-15T01:28:18;2.97;;;2.00;;
24650;SDS011;12783;48.824;8.662;2023-02-15T01:30:45;2.85;;;1.65;;
24650;SDS011;12783;48.824;8.662;2023-02-15T01:33:12;2.17;;;1.60;;
24650;SDS011;12783;48.824;8.662;2023-02-15T01:35:47;2.47;;;1.80;;
24650;SDS011;12783;48.824;8.662;2023-02-15T01:38:14;2.85;;;1.70;;
24650;SDS011;12783;48.824;8.662;2023-02-15T01:40:41;3.20;;;1.80;;
24650;SDS011;12783;48.824;8.662;2023-02-15T01:43:11;3.58;;;1.70;;
24650;SDS011;12783;48.824;8.662;2023-02-15T01:45:38;1.88;;;1.50;;
24650;SDS011;12783;48.824;8.662;2023-02-15T01:48:12;2.55;;;1.52;;
24650;SDS011;12783;48.824;8.662;2023-02-15T01:50:55;2.28;;;1.48;;
24650;SDS011;12783;48.824;8.662;2023-02-15T01:53:37;2.47;;;1.80;;
24650;SDS011;12783;48.824;8.662;2023-02-15T01:56:20;1.48;;;1.30;;
24650;SDS011;12783;48.824;8.662;2023-02-15T01:58:50;2.08;;;1.50;;
24650;SDS011;12783;48.824;8.662;2023-02-15T02:01:18;1.85;;;1.15;;
24650;SDS011;12783;48.824;8.662;2023-02-15T02:06:35;2.60;;;1.00;;
24650;SDS011;12783;48.824;8.662;2023-02-15T02:09:02;1.80;;;1.30;;
24650;SDS011;12783;48.824;8.662;2023-02-15T02:11:29;2.45;;;1.20;;
24650;SDS011;12783;48.824;8.662;2023-02-15T02:13:55;1.25;;;1.10;;
24650;SDS011;12783;48.824;8.662;2023-02-15T02:19:32;1.08;;;1.00;;
24650;SDS011;12783;48.824;8.662;2023-02-15T02:24:53;1.58;;;1.40;;
24650;SDS011;12783;48.824;8.662;2023-02-15T02:30:40;1.73;;;1.50;;
24650;SDS011;12783;48.824;8.662;2023-02-15T02:36:14;1.60;;;1.20;;
24650;SDS011;12783;48.824;8.662;2023-02-15T02:42:00;1.75;;;1.20;;
24650;SDS011;12783;48.824;8.662;2023-02-15T02:44:49;1.58;;;1.20;;
24650;SDS011;12783;48.824;8.662;2023-02-15T02:47:48;1.75;;;1.10;;
24650;SDS011;12783;48.824;8.662;2023-02-15T02:50:24;1.20;;;1.00;;
24650;SDS011;12783;48.824;8.662;2023-02-15T02:52:53;1.40;;;1.30;;
24650;SDS011;12783;48.824;8.662;2023-02-15T02:58:00;2.10;;;1.48;;
24650;SDS011;12783;48.824;8.662;2023-02-15T03:00:29;2.03;;;1.48;;
24650;SDS011;12783;48.824;8.662;2023-02-15T03:03:00;2.35;;;1.52;;
24650;SDS011;12783;48.824;8.662;2023-02-15T03:05:56;2.65;;;1.38;;
24650;SDS011;12783;48.824;8.662;2023-02-15T03:08:28;1.90;;;1.40;;
24650;SDS011;12783;48.824;8.662;2023-02-15T03:10:59;1.67;;;1.50;;
24650;SDS011;12783;48.824;8.662;2023-02-15T03:13:27;1.67;;;1.30;;
24650;SDS011;12783;48.824;8.662;2023-02-15T03:15:54;2.65;;;1.50;;
24650;SDS011;12783;48.824;8.662;2023-02-15T03:18:42;2.03;;;1.63;;
24650;SDS011;12783;48.824;8.662;2023-02-15T03:21:19;2.78;;;1.60;;
24650;SDS011;12783;48.824;8.662;2023-02-15T03:23:56;3.47;;;1.60;;
24650;SDS011;12783;48.824;8.662;2023-02-15T03:26:26;1.33;;;0.98;;
24650;SDS011;12783;48.824;8.662;2023-02-15T03:28:55;2.05;;;1.60;;
24650;SDS011;12783;48.824;8.662;2023-02-15T03:31:23;1.42;;;1.20;;
24650;SDS011;12783;48.824;8.662;2023-02-15T03:33:54;1.17;;;1.08;;
24650;SDS011;12783;48.824;8.662;2023-02-15T03:39:20;1.27;;;1.17;;
24650;SDS011;12783;48.824;8.662;2023-02-15T03:41:58;1.35;;;0.90;;
24650;SDS011;12783;48.824;8.662;2023-02-15T03:44:35;1.25;;;0.80;;
24650;SDS011;12783;48.824;8.662;2023-02-15T03:47:08;1.33;;;0.80;;
24650;SDS011;12783;48.824;8.662;2023-02-15T03:49:44;1.20;;;0.80;;
24650;SDS011;12783;48.824;8.662;2023-02-15T03:52:21;0.75;;;0.75;;
24650;SDS011;12783;48.824;8.662;2023-02-15T03:54:49;0.90;;;0.80;;
24650;SDS011;12783;48.824;8.662;2023-02-15T04:05:43;0.90;;;0.70;;
24650;SDS011;12783;48.824;8.662;2023-02-15T04:08:10;1.20;;;0.77;;
24650;SDS011;12783;48.824;8.662;2023-02-15T04:10:37;1.23;;;0.90;;
24650;SDS011;12783;48.824;8.662;2023-02-15T04:13:22;3.53;;;0.80;;
24650;SDS011;12783;48.824;8.662;2023-02-15T04:15:50;1.17;;;0.88;;
24650;SDS011;12783;48.824;8.662;2023-02-15T04:21:19;2.80;;;0.88;;
24650;SDS011;12783;48.824;8.662;2023-02-15T04:24:05;4.22;;;0.90;;
24650;SDS011;12783;48.824;8.662;2023-02-15T04:26:51;0.93;;;0.80;;
24650;SDS011;12783;48.824;8.662;2023-02-15T04:29:22;0.77;;;0.70;;
24650;SDS011;12783;48.824;8.662;2023-02-15T04:31:50;0.88;;;0.80;;
24650;SDS011;12783;48.824;8.662;2023-02-15T04:34:18;1.15;;;0.98;;
24650;SDS011;12783;48.824;8.662;2023-02-15T04:36:45;1.30;;;1.20;;
24650;SDS011;12783;48.824;8.662;2023-02-15T04:39:12;1.35;;;0.90;;
24650;SDS011;12783;48.824;8.662;2023-02-15T04:41:40;1.00;;;0.90;;
24650;SDS011;12783;48.824;8.662;2023-02-15T04:44:07;1.98;;;0.80;;
24650;SDS011;12783;48.824;8.662;2023-02-15T04:46:34;1.40;;;0.90;;
24650;SDS011;12783;48.824;8.662;2023-02-15T04:49:00;1.13;;;1.00;;
24650;SDS011;12783;48.824;8.662;2023-02-15T04:51:27;1.48;;;1.00;;
24650;SDS011;12783;48.824;8.662;2023-02-15T04:53:54;0.68;;;0.65;;
24650;SDS011;12783;48.824;8.662;2023-02-15T04:56:22;1.20;;;1.05;;
24650;SDS011;12783;48.824;8.662;2023-02-15T04:58:49;1.10;;;0.98;;
24650;SDS011;12783;48.824;8.662;2023-02-15T05:01:16;1.27;;;1.00;;
24650;SDS011;12783;48.824;8.662;2023-02-15T05:03:43;1.98;;;0.90;;
24650;SDS011;12783;48.824;8.662;2023-02-15T05:06:10;2.15;;;1.13;;
24650;SDS011;12783;48.824;8.662;2023-02-15T05:08:37;1.67;;;1.00;;
24650;SDS011;12783;48.824;8.662;2023-02-15T05:11:03;1.00;;;0.90;;
24650;SDS011;12783;48.824;8.662;2023-02-15T05:13:30;3.00;;;1.00;;
24650;SDS011;12783;48.824;8.662;2023-02-15T05:15:57;1.60;;;0.98;;
24650;SDS011;12783;48.824;8.662;2023-02-15T05:18:23;1.30;;;0.90;;
24650;SDS011;12783;48.824;8.662;2023-02-15T05:20:50;1.52;;;1.10;;
24650;SDS011;12783;48.824;8.662;2023-02-15T05:23:17;1.00;;;0.90;;
24650;SDS011;12783;48.824;8.662;2023-02-15T05:25:47;1.75;;;0.88;;
24650;SDS011;12783;48.824;8.662;2023-02-15T05:28:33;1.10;;;1.00;;
24650;SDS011;12783;48.824;8.662;2023-02-15T05:31:06;1.38;;;1.05;;
24650;SDS011;12783;48.824;8.662;2023-02-15T05:33:37;2.00;;;1.00;;
24650;SDS011;12783;48.824;8.662;2023-02-15T05:36:05;1.23;;;1.02;;
24650;SDS011;12783;48.824;8.662;2023-02-15T05:38:32;1.60;;;1.10;;
24650;SDS011;12783;48.824;8.662;2023-02-15T05:40:59;0.90;;;0.90;;
24650;SDS011;12783;48.824;8.662;2023-02-15T05:43:26;1.48;;;1.05;;
24650;SDS011;12783;48.824;8.662;2023-02-15T05:45:53;1.98;;;1.42;;
24650;SDS011;12783;48.824;8.662;2023-02-15T05:48:21;1.33;;;1.20;;
24650;SDS011;12783;48.824;8.662;2023-02-15T05:51:05;2.55;;;1.50;;
24650;SDS011;12783;48.824;8.662;2023-02-15T05:53:35;3.83;;;1.42;;
24650;SDS011;12783;48.824;8.662;2023-02-15T05:56:03;3.20;;;1.70;;
24650;SDS011;12783;48.824;8.662;2023-02-15T05:58:32;2.45;;;1.60;;
24650;SDS011;12783;48.824;8.662;2023-02-15T06:01:06;3.38;;;1.30;;
24650;SDS011;12783;48.824;8.662;2023-02-15T06:03:52;2.05;;;1.60;;
24650;SDS011;12783;48.824;8.662;2023-02-15T06:06:19;2.92;;;1.70;;
24650;SDS011;12783;48.824;8.662;2023-02-15T06:08:45;14.70;;;6.75;;
24650;SDS011;12783;48.824;8.662;2023-02-15T06:11:12;8.35;;;4.13;;
24650;SDS011;12783;48.824;8.662;2023-02-15T06:13:39;5.97;;;2.75;;
24650;SDS011;12783;48.824;8.662;2023-02-15T06:16:06;6.38;;;2.30;;
24650;SDS011;12783;48.824;8.662;2023-02-15T06:18:33;4.15;;;2.13;;
24650;SDS011;12783;48.824;8.662;2023-02-15T06:20:59;2.75;;;2.00;;
24650;SDS011;12783;48.824;8.662;2023-02-15T06:23:27;2.20;;;1.85;;
24650;SDS011;12783;48.824;8.662;2023-02-15T06:25:54;3.20;;;1.98;;
24650;SDS011;12783;48.824;8.662;2023-02-15T06:28:21;2.38;;;1.70;;
24650;SDS011;12783;48.824;8.662;2023-02-15T06:30:48;3.28;;;1.98;;
24650;SDS011;12783;48.824;8.662;2023-02-15T06:33:15;3.05;;;2.17;;
24650;SDS011;12783;48.824;8.662;2023-02-15T06:35:42;4.28;;;2.47;;
24650;SDS011;12783;48.824;8.662;2023-02-15T06:38:09;3.70;;;2.60;;
24650;SDS011;12783;48.824;8.662;2023-02-15T06:40:35;3.85;;;2.70;;
24650;SDS011;12783;48.824;8.662;2023-02-15T06:43:02;4.80;;;3.03;;
24650;SDS011;12783;48.824;8.662;2023-02-15T06:45:29;2.90;;;2.05;;
24650;SDS011;12783;48.824;8.662;2023-02-15T06:47:56;4.63;;;2.55;;
24650;SDS011;12783;48.824;8.662;2023-02-15T06:50:22;3.53;;;2.30;;
24650;SDS011;12783;48.824;8.662;2023-02-15T06:52:49;4.95;;;2.58;;
24650;SDS011;12783;48.824;8.662;2023-02-15T06:55:18;4.60;;;1.80;;
24650;SDS011;12783;48.824;8.662;2023-02-15T06:57:45;3.05;;;1.90;;
24650;SDS011;12783;48.824;8.662;2023-02-15T07:00:13;3.35;;;1.40;;
24650;SDS011;12783;48.824;8.662;2023-02-15T07:02:40;2.15;;;1.50;;
24650;SDS011;12783;48.824;8.662;2023-02-15T07:05:07;1.50;;;1.38;;
24650;SDS011;12783;48.824;8.662;2023-02-15T07:07:34;3.78;;;1.35;;
24650;SDS011;12783;48.824;8.662;2023-02-15T07:10:00;1.83;;;1.40;;
24650;SDS011;12783;48.824;8.662;2023-02-15T07:12:27;1.35;;;1.15;;
24650;SDS011;12783;48.824;8.662;2023-02-15T07:15:11;1.30;;;1.00;;
24650;SDS011;12783;48.824;8.662;2023-02-15T07:17:40;1.08;;;0.98;;
24650;SDS011;12783;48.824;8.662;2023-02-15T07:20:11;1.35;;;1.10;;
24650;SDS011;12783;48.824;8.662;2023-02-15T07:22:42;2.00;;;1.17;;
24650;SDS011;12783;48.824;8.662;2023-02-15T07:25:10;2.13;;;1.25;;
24650;SDS011;12783;48.824;8.662;2023-02-15T07:27:37;1.52;;;1.30;;
24650;SDS011;12783;48.824;8.662;2023-02-15T07:30:04;1.17;;;1.08;;
24650;SDS011;12783;48.824;8.662;2023-02-15T07:32:33;1.58;;;0.98;;
24650;SDS011;12783;48.824;8.662;2023-02-15T07:34:59;1.05;;;0.95;;
24650;SDS011;12783;48.824;8.662;2023-02-15T07:37:26;1.20;;;1.00;;
24650;SDS011;12783;48.824;8.662;2023-02-15T07:39:53;1.50;;;0.95;;
24650;SDS011;12783;48.824;8.662;2023-02-15T07:42:20;1.20;;;1.10;;
24650;SDS011;12783;48.824;8.662;2023-02-15T07:44:48;1.58;;;1.25;;
24650;SDS011;12783;48.824;8.662;2023-02-15T07:47:15;1.85;;;1.45;;
24650;SDS011;12783;48.824;8.662;2023-02-15T07:49:41;2.08;;;1.20;;
24650;SDS011;12783;48.824;8.662;2023-02-15T07:52:08;2.30;;;1.10;;
24650;SDS011;12783;48.824;8.662;2023-02-15T07:54:35;1.55;;;1.13;;
24650;SDS011;12783;48.824;8.662;2023-02-15T07:57:01;1.88;;;1.27;;
24650;SDS011;12783;48.824;8.662;2023-02-15T07:59:28;2.15;;;1.25;;
24650;SDS011;12783;48.824;8.662;2023-02-15T08:01:55;1.83;;;1.10;;
24650;SDS011;12783;48.824;8.662;2023-02-15T08:04:22;2.03;;;1.40;;
24650;SDS011;12783;48.824;8.662;2023-02-15T08:06:51;1.83;;;1.45;;
24650;SDS011;12783;48.824;8.662;2023-02-15T08:09:19;1.42;;;1.20;;
24650;SDS011;12783;48.824;8.662;2023-02-15T08:11:46;1.85;;;1.20;;
24650;SDS011;12783;48.824;8.662;2023-02-15T08:17:01;1.77;;;1.33;;
24650;SDS011;12783;48.824;8.662;2023-02-15T08:19:31;1.55;;;1.10;;
24650;SDS011;12783;48.824;8.662;2023-02-15T08:21:59;1.70;;;1.40;;
24650;SDS011;12783;48.824;8.662;2023-02-15T08:24:31;2.40;;;1.20;;
24650;SDS011;12783;48.824;8.662;2023-02-15T08:26:59;1.65;;;1.17;;
24650;SDS011;12783;48.824;8.662;2023-02-15T08:29:31;1.40;;;1.20;;
24650;SDS011;12783;48.824;8.662;2023-02-15T08:32:00;2.40;;;1.80;;
24650;SDS011;12783;48.824;8.662;2023-02-15T08:34:30;2.63;;;1.88;;
24650;SDS011;12783;48.824;8.662;2023-02-15T08:36:57;1.88;;;1.67;;
24650;SDS011;12783;48.824;8.662;2023-02-15T08:39:24;3.65;;;1.60;;
24650;SDS011;12783;48.824;8.662;2023-02-15T08:41:51;2.83;;;1.95;;
24650;SDS011;12783;48.824;8.662;2023-02-15T08:44:18;5.32;;;2.38;;
24650;SDS011;12783;48.824;8.662;2023-02-15T08:46:46;2.72;;;1.88;;
24650;SDS011;12783;48.824;8.662;2023-02-15T08:49:20;3.03;;;2.47;;
24650;SDS011;12783;48.824;8.662;2023-02-15T08:51:47;6.85;;;4.10;;
24650;SDS011;12783;48.824;8.662;2023-02-15T08:54:16;4.65;;;3.03;;
24650;SDS011;12783;48.824;8.662;2023-02-15T08:56:44;4.22;;;2.78;;
24650;SDS011;12783;48.824;8.662;2023-02-15T08:59:12;3.50;;;2.72;;
24650;SDS011;12783;48.824;8.662;2023-02-15T09:01:43;5.50;;;2.50;;
24650;SDS011;12783;48.824;8.662;2023-02-15T09:04:10;3.88;;;2.20;;
24650;SDS011;12783;48.824;8.662;2023-02-15T09:06:39;2.90;;;2.05;;
24650;SDS011;12783;48.824;8.662;2023-02-15T09:09:06;3.22;;;2.20;;
24650;SDS011;12783;48.824;8.662;2023-02-15T09:11:35;2.75;;;1.92;;
24650;SDS011;12783;48.824;8.662;2023-02-15T09:14:05;2.67;;;2.10;;
24650;SDS011;12783;48.824;8.662;2023-02-15T09:16:37;2.88;;;2.20;;
24650;SDS011;12783;48.824;8.662;2023-02-15T09:19:04;3.15;;;2.10;;
24650;SDS011;12783;48.824;8.662;2023-02-15T09:21:32;2.95;;;2.00;;
24650;SDS011;12783;48.824;8.662;2023-02-15T09:24:01;3.22;;;2.20;;
24650;SDS011;12783;48.824;8.662;2023-02-15T09:26:29;2.80;;;1.92;;
24650;SDS011;12783;48.824;8.662;2023-02-15T09:28:59;2.92;;;2.03;;
24650;SDS011;12783;48.824;8.662;2023-02-15T09:31:31;2.20;;;1.63;;
24650;SDS011;12783;48.824;8.662;2023-02-15T09:34:11;4.75;;;1.92;;
24650;SDS011;12783;48.824;8.662;2023-02-15T09:36:39;3.20;;;2.15;;
24650;SDS011;12783;48.824;8.662;2023-02-15T09:39:12;2.97;;;2.00;;
24650;SDS011;12783;48.824;8.662;2023-02-15T09:47:30;10.88;;;4.35;;
24650;SDS011;12783;48.824;8.662;2023-02-15T10:01:01;6.45;;;2.22;;
24650;SDS011;12783;48.824;8.662;2023-02-15T10:11:55;5.15;;;2.35;;
24650;SDS011;12783;48.824;8.662;2023-02-15T10:28:02;3.13;;;2.10;;
24650;SDS011;12783;48.824;8.662;2023-02-15T10:33:03;3.97;;;2.00;;
24650;SDS011;12783;48.824;8.662;2023-02-15T10:46:35;6.35;;;2.80;;
24650;SDS011;12783;48.824;8.662;2023-02-15T10:52:01;10.18;;;3.60;;
24650;SDS011;12783;48.824;8.662;2023-02-15T10:54:40;4.65;;;2.90;;
24650;SDS011;12783;48.824;8.662;2023-02-15T11:00:21;5.65;;;2.83;;
24650;SDS011;12783;48.824;8.662;2023-02-15T11:03:08;4.88;;;3.10;;
24650;SDS011;12783;48.824;8.662;2023-02-15T11:05:44;5.75;;;3.35;;
24650;SDS011;12783;48.824;8.662;2023-02-15T11:08:17;7.28;;;3.63;;
24650;SDS011;12783;48.824;8.662;2023-02-15T11:10:46;8.07;;;3.70;;
24650;SDS011;12783;48.824;8.662;2023-02-15T11:13:17;4.95;;;3.30;;
24650;SDS011;12783;48.824;8.662;2023-02-15T11:15:57;8.50;;;3.75;;
24650;SDS011;12783;48.824;8.662;2023-02-15T11:23:42;7.03;;;3.80;;
24650;SDS011;12783;48.824;8.662;2023-02-15T11:26:33;10.13;;;4.00;;
24650;SDS011;12783;48.824;8.662;2023-02-15T11:31:47;10.00;;;4.80;;
24650;SDS011;12783;48.824;8.662;2023-02-15T11:34:22;12.85;;;4.72;;
24650;SDS011;12783;48.824;8.662;2023-02-15T11:36:54;5.93;;;3.97;;
24650;SDS011;12783;48.824;8.662;2023-02-15T11:39:21;7.55;;;4.28;;
24650;SDS011;12783;48.824;8.662;2023-02-15T11:41:53;7.03;;;4.15;;
24650;SDS011;12783;48.824;8.662;2023-02-15T11:44:27;7.65;;;4.32;;
24650;SDS011;12783;48.824;8.662;2023-02-15T11:47:11;7.90;;;4.43;;
24650;SDS011;12783;48.824;8.662;2023-02-15T11:49:38;8.52;;;4.70;;
24650;SDS011;12783;48.824;8.662;2023-02-15T11:52:06;8.82;;;4.28;;
24650;SDS011;12783;48.824;8.662;2023-02-15T11:54:34;9.82;;;4.57;;
24650;SDS011;12783;48.824;8.662;2023-02-15T11:57:05;8.40;;;4.28;;
24650;SDS011;12783;48.824;8.662;2023-02-15T12:00:19;8.70;;;5.00;;
24650;SDS011;12783;48.824;8.662;2023-02-15T12:02:53;7.53;;;4.30;;
24650;SDS011;12783;48.824;8.662;2023-02-15T12:05:22;5.68;;;3.60;;
24650;SDS011;12783;48.824;8.662;2023-02-15T12:08:03;7.80;;;3.78;;
24650;SDS011;12783;48.824;8.662;2023-02-15T12:11:25;6.13;;;3.45;;
24650;SDS011;12783;48.824;8.662;2023-02-15T12:13:27;7.20;;;3.60;;
24650;SDS011;12783;48.824;8.662;2023-02-15T12:15:57;8.63;;;4.80;;
24650;SDS011;12783;48.824;8.662;2023-02-15T12:20:53;9.77;;;4.15;;
24650;SDS011;12783;48.824;8.662;2023-02-15T12:23:25;7.45;;;4.25;;
24650;SDS011;12783;48.824;8.662;2023-02-15T12:25:54;6.95;;;3.88;;
24650;SDS011;12783;48.824;8.662;2023-02-15T12:28:32;7.03;;;3.83;;
24650;SDS011;12783;48.824;8.662;2023-02-15T12:31:06;6.38;;;3.90;;
24650;SDS011;12783;48.824;8.662;2023-02-15T12:33:45;8.88;;;3.90;;
24650;SDS011;12783;48.824;8.662;2023-02-15T12:36:22;6.20;;;3.83;;
24650;SDS011;12783;48.824;8.662;2023-02-15T12:39:16;8.65;;;3.85;;
24650;SDS011;12783;48.824;8.662;2023-02-15T12:44:28;9.38;;;6.03;;
24650;SDS011;12783;48.824;8.662;2023-02-15T12:46:57;9.88;;;5.63;;
24650;SDS011;12783;48.824;8.662;2023-02-15T12:49:36;11.40;;;5.65;;
24650;SDS011;12783;48.824;8.662;2023-02-15T12:52:05;10.95;;;6.15;;
24650;SDS011;12783;48.824;8.662;2023-02-15T12:54:40;8.90;;;4.72;;
24650;SDS011;12783;48.824;8.662;2023-02-15T12:59:59;13.13;;;5.70;;
24650;SDS011;12783;48.824;8.662;2023-02-15T13:02:33;14.15;;;5.40;;
24650;SDS011;12783;48.824;8.662;2023-02-15T13:05:45;16.33;;;8.80;;
24650;SDS011;12783;48.824;8.662;2023-02-15T13:07:59;10.90;;;6.22;;
24650;SDS011;12783;48.824;8.662;2023-02-15T13:10:42;13.30;;;6.03;;
24650;SDS011;12783;48.824;8.662;2023-02-15T13:13:19;9.68;;;5.95;;
24650;SDS011;12783;48.824;8.662;2023-02-15T13:15:49;10.55;;;5.30;;
24650;SDS011;12783;48.824;8.662;2023-02-15T13:18:29;12.85;;;5.28;;
24650;SDS011;12783;48.824;8.662;2023-02-15T13:20:56;13.75;;;5.18;;
24650;SDS011;12783;48.824;8.662;2023-02-15T13:23:28;11.07;;;5.78;;
24650;SDS011;12783;48.824;8.662;2023-02-15T13:25:57;13.90;;;7.22;;
24650;SDS011;12783;48.824;8.662;2023-02-15T13:28:33;14.70;;;8.35;;
24650;SDS011;12783;48.824;8.662;2023-02-15T13:31:07;13.80;;;7.88;;
24650;SDS011;12783;48.824;8.662;2023-02-15T13:33:39;14.25;;;8.30;;
24650;SDS011;12783;48.824;8.662;2023-02-15T13:36:23;14.85;;;8.00;;
24650;SDS011;12783;48.824;8.662;2023-02-15T13:42:00;7.82;;;4.75;;
24650;SDS011;12783;48.824;8.662;2023-02-15T13:44:41;10.57;;;6.75;;
24650;SDS011;12783;48.824;8.662;2023-02-15T13:47:45;15.98;;;8.82;;
24650;SDS011;12783;48.824;8.662;2023-02-15T13:53:29;12.95;;;7.68;;
24650;SDS011;12783;48.824;8.662;2023-02-15T13:56:02;15.10;;;8.35;;
24650;SDS011;12783;48.824;8.662;2023-02-15T14:01:17;17.42;;;9.60;;
24650;SDS011;12783;48.824;8.662;2023-02-15T14:04:01;17.88;;;9.88;;
24650;SDS011;12783;48.824;8.662;2023-02-15T14:18:14;20.63;;;10.35;;
24650;SDS011;12783;48.824;8.662;2023-02-15T14:20:57;17.08;;;9.75;;
24650;SDS011;12783;48.824;8.662;2023-02-15T14:29:29;17.27;;;8.52;;
24650;SDS011;12783;48.824;8.662;2023-02-15T14:32:23;18.80;;;8.82;;
24650;SDS011;12783;48.824;8.662;2023-02-15T14:34:59;18.33;;;9.23;;
24650;SDS011;12783;48.824;8.662;2023-02-15T14:37:30;19.10;;;9.02;;
24650;SDS011;12783;48.824;8.662;2023-02-15T14:46:10;18.25;;;9.55;;
24650;SDS011;12783;48.824;8.662;2023-02-15T14:49:19;14.48;;;8.35;;
24650;SDS011;12783;48.824;8.662;2023-02-15T14:56:43;21.75;;;9.18;;
24650;SDS011;12783;48.824;8.662;2023-02-15T15:01:37;15.50;;;8.30;;
24650;SDS011;12783;48.824;8.662;2023-02-15T15:04:06;16.33;;;9.15;;
24650;SDS011;12783;48.824;8.662;2023-02-15T15:06:40;18.95;;;9.20;;
24650;SDS011;12783;48.824;8.662;2023-02-15T15:09:12;17.20;;;9.85;;
24650;SDS011;12783;48.824;8.662;2023-02-15T15:11:49;16.98;;;8.77;;
24650;SDS011;12783;48.824;8.662;2023-02-15T15:16:59;14.35;;;8.25;;
24650;SDS011;12783;48.824;8.662;2023-02-15T15:24:46;17.83;;;9.30;;
24650;SDS011;12783;48.824;8.662;2023-02-15T15:38:34;17.27;;;8.83;;
24650;SDS011;12783;48.824;8.662;2023-02-15T15:49:28;12.25;;;5.85;;
24650;SDS011;12783;48.824;8.662;2023-02-15T15:51:59;11.75;;;5.43;;
24650;SDS011;12783;48.824;8.662;2023-02-15T15:54:28;10.50;;;5.10;;
24650;SDS011;12783;48.824;8.662;2023-02-15T15:57:02;10.55;;;4.45;;
24650;SDS011;12783;48.824;8.662;2023-02-15T15:59:31;9.50;;;4.93;;
24650;SDS011;12783;48.824;8.662;2023-02-15T16:02:06;10.65;;;5.03;;
24650;SDS011;12783;48.824;8.662;2023-02-15T16:04:34;11.20;;;5.22;;
24650;SDS011;12783;48.824;8.662;2023-02-15T16:10:00;9.60;;;4.75;;
24650;SDS011;12783;48.824;8.662;2023-02-15T16:12:33;8.38;;;4.65;;
24650;SDS011;12783;48.824;8.662;2023-02-15T16:15:02;8.27;;;4.43;;
24650;SDS011;12783;48.824;8.662;2023-02-15T16:17:40;8.05;;;4.40;;
24650;SDS011;12783;48.824;8.662;2023-02-15T16:20:15;10.80;;;4.90;;
24650;SDS011;12783;48.824;8.662;2023-02-15T16:28:35;8.50;;;4.55;;
24650;SDS011;12783;48.824;8.662;2023-02-15T16:31:07;8.10;;;4.88;;
24650;SDS011;12783;48.824;8.662;2023-02-15T16:33:39;7.65;;;4.35;;
24650;SDS011;12783;48.824;8.662;2023-02-15T16:36:10;9.77;;;4.10;;
24650;SDS011;12783;48.824;8.662;2023-02-15T16:41:15;11.65;;;5.05;;
24650;SDS011;12783;48.824;8.662;2023-02-15T16:43:45;9.95;;;4.43;;
24650;SDS011;12783;48.824;8.662;2023-02-15T16:46:24;6.90;;;3.83;;
24650;SDS011;12783;48.824;8.662;2023-02-15T16:48:57;5.40;;;3.50;;
24650;SDS011;12783;48.824;8.662;2023-02-15T16:51:31;9.52;;;3.97;;
24650;SDS011;12783;48.824;8.662;2023-02-15T16:54:03;7.45;;;3.88;;
24650;SDS011;12783;48.824;8.662;2023-02-15T16:56:33;9.95;;;5.22;;
24650;SDS011;12783;48.824;8.662;2023-02-15T16:59:00;7.45;;;4.05;;
24650;SDS011;12783;48.824;8.662;2023-02-15T17:01:28;7.25;;;3.42;;
24650;SDS011;12783;48.824;8.662;2023-02-15T17:04:42;6.95;;;3.33;;
24650;SDS011;12783;48.824;8.662;2023-02-15T17:09:53;4.88;;;2.75;;
24650;SDS011;12783;48.824;8.662;2023-02-15T17:18:00;4.57;;;2.75;;
24650;SDS011;12783;48.824;8.662;2023-02-15T17:20:44;4.13;;;2.35;;
24650;SDS011;12783;48.824;8.662;2023-02-15T17:26:00;5.40;;;3.20;;
24650;SDS011;12783;48.824;8.662;2023-02-15T17:28:37;6.05;;;3.22;;
24650;SDS011;12783;48.824;8.662;2023-02-15T17:31:06;6.93;;;3.60;;
24650;SDS011;12783;48.824;8.662;2023-02-15T17:33:36;5.07;;;3.22;;
24650;SDS011;12783;48.824;8.662;2023-02-15T17:36:06;6.68;;;3.25;;
24650;SDS011;12783;48.824;8.662;2023-02-15T17:38:38;6.65;;;3.35;;
24650;SDS011;12783;48.824;8.662;2023-02-15T17:41:06;5.55;;;3.25;;
24650;SDS011;12783;48.824;8.662;2023-02-15T17:43:36;5.40;;;3.35;;
24650;SDS011;12783;48.824;8.662;2023-02-15T17:46:10;5.22;;;2.80;;
24650;SDS011;12783;48.824;8.662;2023-02-15T17:48:39;4.72;;;3.00;;
24650;SDS011;12783;48.824;8.662;2023-02-15T17:51:10;4.93;;;3.40;;
24650;SDS011;12783;48.824;8.662;2023-02-15T17:53:38;3.97;;;2.72;;
24650;SDS011;12783;48.824;8.662;2023-02-15T17:56:05;4.63;;;2.95;;
24650;SDS011;12783;48.824;8.662;2023-02-15T17:58:38;4.00;;;2.92;;
24650;SDS011;12783;48.824;8.662;2023-02-15T18:01:13;5.72;;;2.30;;
24650;SDS011;12783;48.824;8.662;2023-02-15T18:04:01;7.10;;;2.80;;
24650;SDS011;12783;48.824;8.662;2023-02-15T18:06:47;6.28;;;2.80;;
24650;SDS011;12783;48.824;8.662;2023-02-15T18:12:22;4.30;;;2.60;;
24650;SDS011;12783;48.824;8.662;2023-02-15T18:14:53;3.22;;;2.40;;
24650;SDS011;12783;48.824;8.662;2023-02-15T18:17:24;4.15;;;2.50;;
24650;SDS011;12783;48.824;8.662;2023-02-15T18:19:58;7.70;;;2.58;;
24650;SDS011;12783;48.824;8.662;2023-02-15T18:22:27;3.50;;;2.30;;
24650;SDS011;12783;48.824;8.662;2023-02-15T18:24:54;4.15;;;2.30;;
24650;SDS011;12783;48.824;8.662;2023-02-15T18:27:21;3.42;;;2.30;;
24650;SDS011;12783;48.824;8.662;2023-02-15T18:29:48;3.33;;;2.42;;
24650;SDS011;12783;48.824;8.662;2023-02-15T18:32:17;3.92;;;2.55;;
24650;SDS011;12783;48.824;8.662;2023-02-15T18:37:29;5.53;;;3.13;;
24650;SDS011;12783;48.824;8.662;2023-02-15T18:39:58;6.45;;;2.95;;